createdAt,value
2017-09-21T15:33:47.006Z,993.38
2017-09-21T15:34:39.913Z,993.36
2017-09-21T15:35:39.944Z,993.37
2017-09-21T15:36:39.919Z,993.38
2017-09-21T15:37:39.919Z,993.38
2017-09-21T15:38:39.923Z,993.38
2017-09-21T15:39:39.923Z,993.38
2017-09-21T15:40:39.926Z,993.39
2017-09-21T15:41:39.927Z,993.33
2017-09-21T15:42:39.928Z,993.39
2017-09-21T15:43:39.934Z,993.41
2017-09-21T15:44:39.934Z,993.39
2017-09-21T15:45:39.935Z,993.4
2017-09-21T15:46:39.937Z,993.4
2017-09-21T15:47:39.938Z,993.38
2017-09-21T15:48:39.942Z,993.38
2017-09-21T15:49:39.943Z,993.38
2017-09-21T15:50:39.947Z,993.4
2017-09-21T15:51:39.948Z,993.42
2017-09-21T15:52:39.949Z,993.38
2017-09-21T15:53:39.950Z,993.39
2017-09-21T15:54:39.953Z,993.39
2017-09-21T15:55:39.954Z,993.46
2017-09-21T15:56:39.955Z,993.42
2017-09-21T15:57:39.958Z,993.39
2017-09-21T15:58:39.961Z,993.39
2017-09-21T15:59:39.963Z,993.35
2017-09-21T16:00:39.963Z,993.37
2017-09-21T16:01:39.967Z,993.41
2017-09-21T16:02:39.969Z,993.44
2017-09-21T16:03:39.968Z,993.44
2017-09-21T16:04:39.977Z,993.39
2017-09-21T16:05:39.973Z,993.39
2017-09-21T16:06:39.976Z,993.41
2017-09-21T16:07:39.977Z,993.4
2017-09-21T16:08:39.979Z,993.34
2017-09-21T16:09:39.982Z,993.37
2017-09-21T16:10:39.982Z,993.34
2017-09-21T16:11:39.983Z,993.39
2017-09-21T16:12:39.985Z,993.39
2017-09-21T16:13:39.987Z,993.38
2017-09-21T16:14:39.989Z,993.36
2017-09-21T16:15:39.989Z,993.4
2017-09-21T16:16:39.996Z,993.35
2017-09-21T16:17:39.997Z,993.38
2017-09-21T16:18:39.994Z,993.37
2017-09-21T16:19:40.007Z,993.37
2017-09-21T16:20:40.007Z,993.36
2017-09-21T16:21:40.002Z,993.39
2017-09-21T16:22:40.002Z,993.39
2017-09-21T16:23:40.004Z,993.37
2017-09-21T16:24:40.010Z,993.36
2017-09-21T16:25:40.009Z,993.34
2017-09-21T16:26:40.021Z,993.33
2017-09-21T16:27:40.010Z,993.33
2017-09-21T16:28:40.013Z,993.31
2017-09-21T16:29:40.015Z,993.31
2017-09-21T16:30:40.016Z,993.3
2017-09-21T16:31:40.018Z,993.31
2017-09-21T16:32:40.017Z,993.34
2017-09-21T16:33:40.019Z,993.3
2017-09-21T16:34:40.973Z,993.31
2017-09-21T16:35:40.023Z,993.31
2017-09-21T16:36:40.023Z,993.3
2017-09-21T16:37:40.025Z,993.31
2017-09-21T16:38:40.026Z,993.32
2017-09-21T16:39:40.027Z,993.34
2017-09-21T16:40:40.029Z,993.31
2017-09-21T16:41:40.029Z,993.35
2017-09-21T16:42:40.031Z,993.33
2017-09-21T16:43:40.031Z,993.36
2017-09-21T16:44:40.033Z,993.33
2017-09-21T16:45:40.035Z,993.37
2017-09-21T16:46:40.036Z,993.36
2017-09-21T16:47:40.037Z,993.39
2017-09-21T16:48:40.130Z,993.4
2017-09-21T16:49:40.067Z,993.38
2017-09-21T16:50:40.043Z,993.39
2017-09-21T16:51:40.041Z,993.38
2017-09-21T16:52:40.041Z,993.37
2017-09-21T16:53:40.044Z,993.39
2017-09-21T16:54:40.052Z,993.35
2017-09-21T16:55:40.047Z,993.37
2017-09-21T16:56:40.050Z,993.36
2017-09-21T16:57:40.054Z,993.35
2017-09-21T16:58:40.048Z,993.4
2017-09-21T16:59:40.050Z,993.4
2017-09-21T17:00:40.052Z,993.39
2017-09-21T17:01:40.052Z,993.37
2017-09-21T17:02:40.052Z,993.39
2017-09-21T17:03:40.056Z,993.41
2017-09-21T17:04:40.056Z,993.41
2017-09-21T17:05:40.053Z,993.39
2017-09-21T17:06:40.107Z,993.38
2017-09-21T17:07:40.103Z,993.37
2017-09-21T17:08:40.060Z,993.33
2017-09-21T17:09:40.058Z,993.38
2017-09-21T17:10:40.058Z,993.35
2017-09-21T17:11:40.059Z,993.34
2017-09-21T17:12:40.060Z,993.4
2017-09-21T17:13:40.069Z,993.39
2017-09-21T17:14:40.061Z,993.41
2017-09-21T17:15:40.061Z,993.37
2017-09-21T17:16:40.062Z,993.38
2017-09-21T17:17:40.062Z,993.35
2017-09-21T17:18:40.063Z,993.41
2017-09-21T17:19:40.064Z,993.4
2017-09-21T17:20:40.063Z,993.37
2017-09-21T17:21:40.064Z,993.39
2017-09-21T17:22:40.065Z,993.39
2017-09-21T17:23:40.065Z,993.44
2017-09-21T17:24:40.067Z,993.39
2017-09-21T17:25:40.065Z,993.38
2017-09-21T17:26:40.121Z,993.41
2017-09-21T17:27:40.065Z,993.4
2017-09-21T17:28:40.066Z,993.4
2017-09-21T17:29:40.127Z,993.42
2017-09-21T17:30:40.065Z,993.38
2017-09-21T17:31:40.065Z,993.42
2017-09-21T17:32:40.066Z,993.43
2017-09-21T17:33:40.065Z,993.46
2017-09-21T17:34:40.069Z,993.46
2017-09-21T17:35:40.067Z,993.46
2017-09-21T17:36:40.064Z,993.43
2017-09-21T17:37:40.067Z,993.45
2017-09-21T17:38:40.065Z,993.48
2017-09-21T17:39:40.065Z,993.45
2017-09-21T17:40:40.064Z,993.47
2017-09-21T17:41:40.065Z,993.49
2017-09-21T17:42:40.065Z,993.5
2017-09-21T17:43:40.065Z,993.47
2017-09-21T17:44:40.064Z,993.47
2017-09-21T17:45:40.073Z,993.46
2017-09-21T17:46:40.065Z,993.51
2017-09-21T17:47:40.064Z,993.5
2017-09-21T17:48:40.063Z,993.51
2017-09-21T17:49:40.102Z,993.52
2017-09-21T17:50:40.116Z,993.51
2017-09-21T17:51:40.063Z,993.5
2017-09-21T17:52:40.065Z,993.5
2017-09-21T17:53:40.066Z,993.52
2017-09-21T17:54:40.066Z,993.58
2017-09-21T17:55:40.061Z,993.57
2017-09-21T17:56:40.062Z,993.6
2017-09-21T17:57:40.061Z,993.61
2017-09-21T17:58:40.062Z,993.62
2017-09-21T17:59:40.060Z,993.66
2017-09-21T18:00:40.061Z,993.63
2017-09-21T18:01:40.059Z,993.62
2017-09-21T18:02:40.060Z,993.61
2017-09-21T18:03:40.076Z,993.63
2017-09-21T18:04:40.058Z,993.62
2017-09-21T18:05:41.960Z,993.59
2017-09-21T18:06:40.058Z,993.62
2017-09-21T18:07:40.058Z,993.66
2017-09-21T18:08:40.094Z,993.61
2017-09-21T18:09:40.058Z,993.67
2017-09-21T18:10:40.056Z,993.65
2017-09-21T18:11:40.054Z,993.65
2017-09-21T18:12:40.060Z,993.68
2017-09-21T18:13:40.053Z,993.67
2017-09-21T18:14:40.054Z,993.7
2017-09-21T18:15:40.052Z,993.72
2017-09-21T18:16:40.051Z,993.74
2017-09-21T18:17:40.051Z,993.66
2017-09-21T18:18:40.050Z,993.69
2017-09-21T18:19:40.048Z,993.73
2017-09-21T18:20:40.049Z,993.73
2017-09-21T18:21:40.048Z,993.73
2017-09-21T18:22:40.047Z,993.8
2017-09-21T18:23:40.047Z,993.77
2017-09-21T18:24:40.046Z,993.77
2017-09-21T18:25:40.066Z,993.78
2017-09-21T18:26:40.047Z,993.8
2017-09-21T18:27:40.043Z,993.81
2017-09-21T18:28:40.043Z,993.79
2017-09-21T18:29:40.042Z,993.81
2017-09-21T18:30:40.044Z,993.82
2017-09-21T18:31:40.040Z,993.85
2017-09-21T18:32:40.039Z,993.8
2017-09-21T18:33:40.050Z,993.85
2017-09-21T18:34:40.037Z,993.87
2017-09-21T18:35:40.038Z,993.81
2017-09-21T18:36:40.037Z,993.87
2017-09-21T18:37:40.042Z,993.88
2017-09-21T18:38:40.034Z,993.9
2017-09-21T18:39:40.033Z,993.87
2017-09-21T18:40:40.041Z,993.9
2017-09-21T18:41:40.034Z,993.9
2017-09-21T18:42:40.034Z,993.89
2017-09-21T18:43:40.030Z,993.91
2017-09-21T18:44:40.028Z,993.92
2017-09-21T18:45:40.040Z,993.92
2017-09-21T18:46:40.033Z,993.92
2017-09-21T18:47:40.042Z,993.93
2017-09-21T18:48:40.035Z,993.87
2017-09-21T18:49:40.024Z,993.96
2017-09-21T18:50:40.022Z,993.98
2017-09-21T18:51:40.021Z,993.97
2017-09-21T18:52:40.072Z,994.02
2017-09-21T18:53:40.045Z,994
2017-09-21T18:54:40.018Z,994.01
2017-09-21T18:55:40.019Z,994.07
2017-09-21T18:56:40.019Z,994.03
2017-09-21T18:57:40.016Z,994.05
2017-09-21T18:58:40.015Z,994.07
2017-09-21T18:59:40.013Z,994.1
2017-09-21T19:00:40.067Z,994.11
2017-09-21T19:01:40.069Z,994.08
2017-09-21T19:02:40.015Z,994.12
2017-09-21T19:03:40.110Z,994.15
2017-09-21T19:04:40.013Z,994.13
2017-09-21T19:05:40.007Z,994.16
2017-09-21T19:06:40.303Z,994.17
2017-09-21T19:07:40.021Z,994.17
2017-09-21T19:08:40.004Z,994.12
2017-09-21T19:09:40.032Z,994.13
2017-09-21T19:10:40.000Z,994.15
2017-09-21T19:11:40.083Z,994.18
2017-09-21T19:12:40.003Z,994.16
2017-09-21T19:13:40.034Z,994.17
2017-09-21T19:14:39.996Z,994.2
2017-09-21T19:15:39.994Z,994.19
2017-09-21T19:16:39.991Z,994.2
2017-09-21T19:17:39.990Z,994.17
2017-09-21T19:18:40.004Z,994.19
2017-09-21T19:19:40.003Z,994.16
2017-09-21T19:20:39.987Z,994.21
2017-09-21T19:21:40.035Z,994.16
2017-09-21T19:22:39.987Z,994.16
2017-09-21T19:23:39.997Z,994.2
2017-09-21T19:24:39.980Z,994.23
2017-09-21T19:25:39.980Z,994.18
2017-09-21T19:26:39.978Z,994.23
2017-09-21T19:27:39.978Z,994.23
2017-09-21T19:28:39.977Z,994.21
2017-09-21T19:29:39.988Z,994.22
2017-09-21T19:30:39.972Z,994.24
2017-09-21T19:31:39.972Z,994.25
2017-09-21T19:32:39.973Z,994.27
2017-09-21T19:33:39.974Z,994.29
2017-09-21T19:34:39.972Z,994.28
2017-09-21T19:35:39.974Z,994.25
2017-09-21T19:36:40.988Z,994.3
2017-09-21T19:37:39.964Z,994.3
2017-09-21T19:38:39.963Z,994.32
2017-09-21T19:39:40.049Z,994.29
2017-09-21T19:40:39.961Z,994.3
2017-09-21T19:41:39.958Z,994.27
2017-09-21T19:42:39.953Z,994.27
2017-09-21T19:43:39.967Z,994.29
2017-09-21T19:44:39.954Z,994.26
2017-09-21T19:45:39.951Z,994.32
2017-09-21T19:46:39.948Z,994.27
2017-09-21T19:47:39.961Z,994.33
2017-09-21T19:48:39.945Z,994.32
2017-09-21T19:49:39.958Z,994.31
2017-09-21T19:50:39.942Z,994.32
2017-09-21T19:51:39.955Z,994.34
2017-09-21T19:52:39.953Z,994.35
2017-09-21T19:53:39.950Z,994.33
2017-09-21T19:54:39.934Z,994.34
2017-09-21T19:55:39.949Z,994.36
2017-09-21T19:56:39.946Z,994.33
2017-09-21T19:57:39.929Z,994.35
2017-09-21T19:58:39.929Z,994.33
2017-09-21T19:59:39.924Z,994.34
2017-09-21T20:00:39.923Z,994.32
2017-09-21T20:01:39.920Z,994.33
2017-09-21T20:02:39.984Z,994.31
2017-09-21T20:03:40.016Z,994.32
2017-09-21T20:04:39.952Z,994.32
2017-09-21T20:05:39.929Z,994.33
2017-09-21T20:06:39.935Z,994.27
2017-09-21T20:07:39.925Z,994.32
2017-09-21T20:08:39.924Z,994.33
2017-09-21T20:09:39.923Z,994.32
2017-09-21T20:10:39.905Z,994.31
2017-09-21T20:11:39.919Z,994.37
2017-09-21T20:12:39.901Z,994.3
2017-09-21T20:13:39.899Z,994.32
2017-09-21T20:14:39.940Z,994.33
2017-09-21T20:15:39.933Z,994.32
2017-09-21T20:16:39.896Z,994.34
2017-09-21T20:17:39.892Z,994.31
2017-09-21T20:18:39.889Z,994.33
2017-09-21T20:19:39.888Z,994.34
2017-09-21T20:20:39.886Z,994.28
2017-09-21T20:21:39.897Z,994.31
2017-09-21T20:22:39.882Z,994.31
2017-09-21T20:23:39.879Z,994.34
2017-09-21T20:24:39.880Z,994.32
2017-09-21T20:25:39.875Z,994.31
2017-09-21T20:26:39.886Z,994.33
2017-09-21T20:27:39.873Z,994.32
2017-09-21T20:28:39.875Z,994.35
2017-09-21T20:29:39.873Z,994.33
2017-09-21T20:30:39.865Z,994.37
2017-09-21T20:31:39.865Z,994.33
2017-09-21T20:32:39.865Z,994.33
2017-09-21T20:33:39.861Z,994.38
2017-09-21T20:34:39.860Z,994.36
2017-09-21T20:35:39.857Z,994.38
2017-09-21T20:36:39.854Z,994.35
2017-09-21T20:37:39.852Z,994.34
2017-09-21T20:38:39.851Z,994.34
2017-09-21T20:39:39.848Z,994.35
2017-09-21T20:40:39.846Z,994.35
2017-09-21T20:41:39.849Z,994.34
2017-09-21T20:42:39.842Z,994.37
2017-09-21T20:43:39.843Z,994.35
2017-09-21T20:44:39.838Z,994.41
2017-09-21T20:45:39.836Z,994.37
2017-09-21T20:46:39.833Z,994.35
2017-09-21T20:47:39.832Z,994.36
2017-09-21T20:48:39.829Z,994.38
2017-09-21T20:49:39.828Z,994.38
2017-09-21T20:50:39.825Z,994.37
2017-09-21T20:51:39.823Z,994.39
2017-09-21T20:52:39.822Z,994.4
2017-09-21T20:53:39.818Z,994.4
2017-09-21T20:54:39.816Z,994.39
2017-09-21T20:55:39.815Z,994.45
2017-09-21T20:56:39.810Z,994.39
2017-09-21T20:57:39.810Z,994.41
2017-09-21T20:58:39.819Z,994.36
2017-09-21T20:59:40.011Z,994.45
2017-09-21T21:00:39.805Z,994.44
2017-09-21T21:01:39.802Z,994.42
2017-09-21T21:02:39.799Z,994.39
2017-09-21T21:03:39.796Z,994.46
2017-09-21T21:04:39.797Z,994.44
2017-09-21T21:05:39.798Z,994.43
2017-09-21T21:06:39.795Z,994.45
2017-09-21T21:07:39.795Z,994.44
2017-09-21T21:08:39.785Z,994.44
2017-09-21T21:09:39.783Z,994.45
2017-09-21T21:10:39.803Z,994.43
2017-09-21T21:11:39.779Z,994.42
2017-09-21T21:12:39.777Z,994.44
2017-09-21T21:13:39.775Z,994.39
2017-09-21T21:14:39.770Z,994.42
2017-09-21T21:15:39.769Z,994.4
2017-09-21T21:16:39.768Z,994.41
2017-09-21T21:17:39.765Z,994.4
2017-09-21T21:18:39.762Z,994.38
2017-09-21T21:19:39.759Z,994.39
2017-09-21T21:20:39.759Z,994.32
2017-09-21T21:21:39.754Z,994.37
2017-09-21T21:22:39.754Z,994.35
2017-09-21T21:23:39.752Z,994.36
2017-09-21T21:24:39.748Z,994.32
2017-09-21T21:25:39.747Z,994.34
2017-09-21T21:26:39.742Z,994.31
2017-09-21T21:27:39.746Z,994.32
2017-09-21T21:28:39.740Z,994.37
2017-09-21T21:29:39.738Z,994.36
2017-09-21T21:30:39.733Z,994.38
2017-09-21T21:31:39.731Z,994.36
2017-09-21T21:32:39.732Z,994.39
2017-09-21T21:33:39.727Z,994.38
2017-09-21T21:34:39.723Z,994.42
2017-09-21T21:35:39.722Z,994.45
2017-09-21T21:36:39.720Z,994.44
2017-09-21T21:37:39.724Z,994.49
2017-09-21T21:38:39.720Z,994.46
2017-09-21T21:39:39.719Z,994.47
2017-09-21T21:40:39.707Z,994.48
2017-09-21T21:41:39.707Z,994.46
2017-09-21T21:42:39.703Z,994.49
2017-09-21T21:43:39.701Z,994.48
2017-09-21T21:44:39.699Z,994.46
2017-09-21T21:45:39.696Z,994.46
2017-09-21T21:46:39.694Z,994.44
2017-09-21T21:47:39.694Z,994.45
2017-09-21T21:48:39.689Z,994.47
2017-09-21T21:49:39.687Z,994.46
2017-09-21T21:50:39.683Z,994.43
2017-09-21T21:51:39.680Z,994.43
2017-09-21T21:52:39.679Z,994.41
2017-09-21T21:53:39.676Z,994.38
2017-09-21T21:54:39.673Z,994.43
2017-09-21T21:55:39.677Z,994.37
2017-09-21T21:56:39.669Z,994.37
2017-09-21T21:57:39.668Z,994.39
2017-09-21T21:58:39.666Z,994.39
2017-09-21T21:59:39.668Z,994.38
2017-09-21T22:00:39.656Z,994.37
2017-09-21T22:01:39.654Z,994.38
2017-09-21T22:02:39.652Z,994.41
2017-09-21T22:03:39.652Z,994.43
2017-09-21T22:04:39.645Z,994.43
2017-09-21T22:05:39.645Z,994.41
2017-09-21T22:06:39.648Z,994.4
2017-09-21T22:07:39.639Z,994.37
2017-09-21T22:08:39.637Z,994.36
2017-09-21T22:09:39.634Z,994.4
2017-09-21T22:10:39.631Z,994.4
2017-09-21T22:11:39.628Z,994.42
2017-09-21T22:12:39.626Z,994.41
2017-09-21T22:13:39.623Z,994.45
2017-09-21T22:14:39.621Z,994.39
2017-09-21T22:15:39.618Z,994.39
2017-09-21T22:16:39.616Z,994.47
2017-09-21T22:17:39.612Z,994.44
2017-09-21T22:18:39.609Z,994.43
2017-09-21T22:19:39.607Z,994.44
2017-09-21T22:20:39.606Z,994.48
2017-09-21T22:21:39.601Z,994.5
2017-09-21T22:22:39.598Z,994.5
2017-09-21T22:23:39.597Z,994.46
2017-09-21T22:24:39.594Z,994.49
2017-09-21T22:25:39.591Z,994.48
2017-09-21T22:26:39.589Z,994.54
2017-09-21T22:27:39.588Z,994.51
2017-09-21T22:28:39.584Z,994.52
2017-09-21T22:59:31.083Z,994.6
2017-09-21T23:00:29.470Z,994.6
2017-09-21T23:01:29.460Z,994.57
2017-09-21T23:02:29.452Z,994.62
2017-09-21T23:03:29.444Z,994.66
2017-09-21T23:04:29.438Z,994.65
2017-09-21T23:05:29.430Z,994.6
2017-09-21T23:06:29.423Z,994.63
2017-09-21T23:07:29.418Z,994.65
2017-09-21T23:08:29.412Z,994.62
2017-09-21T23:09:29.407Z,994.66
2017-09-21T23:10:29.402Z,994.63
2017-09-21T23:11:29.397Z,994.61
2017-09-21T23:12:29.398Z,994.61
2017-09-21T23:13:29.387Z,994.58
2017-09-21T23:14:29.383Z,994.56
2017-09-21T23:15:29.379Z,994.63
2017-09-21T23:16:29.375Z,994.66
2017-09-21T23:17:29.369Z,994.66
2017-09-21T23:18:29.366Z,994.65
2017-09-21T23:19:29.362Z,994.67
2017-09-21T23:20:29.358Z,994.57
2017-09-21T23:21:29.353Z,994.62
2017-09-21T23:22:29.350Z,994.57
2017-09-21T23:23:29.348Z,994.58
2017-09-21T23:26:49.738Z,994.62
2017-09-21T23:27:49.733Z,994.6
2017-09-21T23:28:49.731Z,994.57
2017-09-21T23:29:49.728Z,994.6
2017-09-21T23:30:49.723Z,994.59
2017-09-21T23:31:49.720Z,994.6
2017-09-21T23:32:49.717Z,994.55
2017-09-21T23:33:49.715Z,994.56
2017-09-21T23:34:49.710Z,994.6
2017-09-21T23:35:49.711Z,994.6
2017-09-21T23:36:49.704Z,994.58
2017-09-21T23:37:49.701Z,994.59
2017-09-21T23:38:49.701Z,994.59
2017-09-21T23:39:49.694Z,994.64
2017-09-21T23:40:49.691Z,994.57
2017-09-21T23:41:49.687Z,994.58
2017-09-21T23:42:49.683Z,994.57
2017-09-21T23:43:49.707Z,994.58
2017-09-21T23:44:49.677Z,994.56
2017-09-21T23:45:49.673Z,994.61
2017-09-21T23:46:49.671Z,994.6
2017-09-21T23:47:49.670Z,994.57
2017-09-21T23:48:49.663Z,994.55
2017-09-21T23:49:49.662Z,994.53
2017-09-21T23:50:49.658Z,994.6
2017-09-21T23:51:49.655Z,994.57
2017-09-21T23:52:49.651Z,994.6
2017-09-21T23:53:49.648Z,994.61
2017-09-21T23:54:49.653Z,994.62
2017-09-21T23:55:49.643Z,994.6
2017-09-21T23:56:49.639Z,994.62
2017-09-21T23:57:49.636Z,994.62
2017-09-21T23:58:49.633Z,994.64
2017-09-21T23:59:49.627Z,994.6
